Time;durP1;ratioP1;P1;durP2;ratioP2;P2;SDS_P1;SDS_P2;PMS_P1;PMS_P2;Temp;Humidity;BMP_temperature;BMP_pressure;BME280_temperature;BME280_humidity;BME280_pressure;Samples;Min_cycle;Max_cycle;Signal;HPM_P1;HPM_P2
2022/06/20 00:01:06;;;;;;;1.02;0.40;;;;;;;28.01;40.39;100431.81;5002420;28;20037;-71
2022/06/20 00:03:39;;;;;;;0.90;0.47;;;;;;;27.99;40.19;100429.41;5006801;28;20103;-71
2022/06/20 00:06:05;;;;;;;1.60;0.50;;;;;;;27.99;40.48;100421.38;5007264;28;20055;-70
2022/06/20 00:08:30;;;;;;;1.40;0.43;;;;;;;27.98;40.07;100418.94;5009079;28;20485;-70
2022/06/20 00:10:56;;;;;;;1.80;0.43;;;;;;;27.97;40.21;100410.09;5007836;28;20061;-71
2022/06/20 00:13:25;;;;;;;1.00;0.60;;;;;;;27.97;40.08;100407.44;5009917;28;20061;-71
2022/06/20 00:15:52;;;;;;;0.73;0.50;;;;;;;27.98;40.45;100401.00;5010472;28;20043;-71
2022/06/20 00:18:18;;;;;;;1.10;0.60;;;;;;;27.99;40.19;100409.84;5009121;28;20095;-71
2022/06/20 00:20:44;;;;;;;0.65;0.40;;;;;;;27.99;40.40;100393.78;5011422;28;20485;-71
2022/06/20 00:23:10;;;;;;;1.10;0.55;;;;;;;27.99;39.95;100391.91;5011741;28;20033;-71
2022/06/20 00:25:37;;;;;;;1.92;0.40;;;;;;;27.99;40.26;100389.22;5010501;28;20088;-71
2022/06/20 00:28:03;;;;;;;0.80;0.40;;;;;;;27.99;40.30;100388.44;5010984;28;20436;-71
2022/06/20 00:30:29;;;;;;;0.70;0.52;;;;;;;27.99;40.48;100381.19;5010125;28;20506;-70
2022/06/20 00:32:54;;;;;;;1.23;0.40;;;;;;;27.99;40.33;100380.38;5010932;28;20052;-71
2022/06/20 00:35:20;;;;;;;0.73;0.40;;;;;;;27.98;40.08;100374.22;5010022;28;20029;-71
2022/06/20 00:37:46;;;;;;;1.00;0.40;;;;;;;27.99;40.33;100373.16;5009709;28;20583;-70
2022/06/20 00:40:26;;;;;;;1.10;0.43;;;;;;;27.98;40.11;100368.88;5008950;28;20497;-70
2022/06/20 00:42:52;;;;;;;2.20;0.45;;;;;;;27.99;40.02;100367.00;5008756;28;20397;-71
2022/06/20 00:45:19;;;;;;;1.70;0.40;;;;;;;27.99;39.98;100364.31;5009876;28;20026;-71
2022/06/20 00:47:47;;;;;;;1.35;0.40;;;;;;;28.00;39.94;100366.75;5011098;28;20922;-71
2022/06/20 00:50:20;;;;;;;0.70;0.38;;;;;;;27.99;40.19;100362.47;5011079;28;20390;-71
2022/06/20 00:52:57;;;;;;;0.50;0.40;;;;;;;27.99;39.88;100375.84;5009918;28;20432;-71
2022/06/20 00:55:35;;;;;;;0.63;0.30;;;;;;;27.98;40.25;100387.63;5010638;28;20025;-71
2022/06/20 00:58:14;;;;;;;3.40;0.50;;;;;;;27.97;40.12;100388.69;5010860;28;20137;-71
2022/06/20 01:00:41;;;;;;;0.90;0.30;;;;;;;27.98;40.00;100378.78;5009859;28;20029;-70
2022/06/20 01:03:12;;;;;;;1.15;0.30;;;;;;;27.98;39.96;100376.91;5009408;28;20109;-70
2022/06/20 01:05:47;;;;;;;0.77;0.50;;;;;;;27.97;39.82;100382.53;5010375;28;20468;-70
2022/06/20 01:08:30;;;;;;;0.65;0.40;;;;;;;27.94;39.54;100383.84;5010472;28;20046;-71
2022/06/20 01:11:03;;;;;;;0.68;0.40;;;;;;;27.93;40.10;100374.22;5010551;28;20049;-70
2022/06/20 01:13:29;;;;;;;1.05;0.40;;;;;;;27.94;39.81;100367.78;5009218;28;20034;-71
2022/06/20 01:16:00;;;;;;;0.70;0.40;;;;;;;27.95;39.58;100366.72;5008981;28;20991;-71
2022/06/20 01:18:29;;;;;;;0.70;0.47;;;;;;;27.95;39.58;100361.38;5009039;28;20076;-70
2022/06/20 01:20:57;;;;;;;0.50;0.50;;;;;;;27.95;39.54;100369.41;5010169;28;20034;-71
2022/06/20 01:23:41;;;;;;;2.42;0.40;;;;;;;27.94;40.07;100370.47;5009666;28;20033;-71
2022/06/20 01:26:16;;;;;;;1.08;0.40;;;;;;;27.94;39.60;100367.78;5008927;28;20058;-71
2022/06/20 01:28:46;;;;;;;0.90;0.50;;;;;;;27.94;39.90;100373.13;5009395;28;20062;-71
2022/06/20 01:31:14;;;;;;;1.00;0.40;;;;;;;27.95;39.89;100371.28;5010236;28;20121;-71
2022/06/20 01:33:40;;;;;;;1.13;0.50;;;;;;;27.95;39.63;100368.59;5010016;28;20441;-71
2022/06/20 01:38:51;;;;;;;0.60;0.40;;;;;;;27.92;39.82;100358.41;5010133;28;20041;-71
2022/06/20 01:44:04;;;;;;;1.15;0.40;;;;;;;27.93;39.60;100352.78;5008613;28;20040;-71
2022/06/20 01:46:32;;;;;;;1.27;0.38;;;;;;;27.94;39.75;100357.06;5008803;28;20029;-71
2022/06/20 01:49:02;;;;;;;0.88;0.43;;;;;;;27.95;39.93;100357.88;5009731;28;20486;-71
2022/06/20 01:51:39;;;;;;;1.95;0.70;;;;;;;27.93;39.55;100349.31;5009563;28;20107;-71
2022/06/20 01:54:04;;;;;;;0.70;0.32;;;;;;;27.94;39.35;100346.38;5008565;28;20044;-71
2022/06/20 01:56:30;;;;;;;1.10;0.55;;;;;;;27.94;39.38;100342.88;5009716;28;20033;-71
2022/06/20 01:59:00;;;;;;;1.02;0.40;;;;;;;27.94;39.60;100341.00;5008637;28;20037;-71
2022/06/20 02:01:29;;;;;;;1.02;0.40;;;;;;;27.93;39.25;100339.41;5008409;28;20026;-71
2022/06/20 02:03:54;;;;;;;1.10;0.40;;;;;;;27.93;39.71;100325.22;5008493;28;20041;-71
2022/06/20 02:06:20;;;;;;;1.15;0.55;;;;;;;27.93;39.22;100328.69;5009652;28;20022;-71
2022/06/20 02:08:53;;;;;;;1.15;0.40;;;;;;;27.92;39.35;100331.63;5010068;28;20104;-71
2022/06/20 02:11:21;;;;;;;0.88;0.40;;;;;;;27.91;39.56;100328.16;5007997;28;20053;-71
2022/06/20 02:13:51;;;;;;;0.57;0.40;;;;;;;27.91;39.37;100322.00;5008513;28;20037;-71
2022/06/20 02:16:20;;;;;;;0.70;0.50;;;;;;;27.91;39.29;100330.81;5009014;28;20462;-71
2022/06/20 02:18:49;;;;;;;0.75;0.40;;;;;;;27.90;39.54;100323.84;5009314;28;20057;-71
2022/06/20 02:21:19;;;;;;;1.17;0.50;;;;;;;27.90;39.30;100321.19;5009251;28;20030;-71
2022/06/20 02:23:48;;;;;;;0.80;0.50;;;;;;;27.91;39.27;100319.31;5007674;28;20048;-71
2022/06/20 02:26:15;;;;;;;0.77;0.40;;;;;;;27.90;39.12;100310.47;5008961;28;20064;-71
2022/06/20 02:28:48;;;;;;;0.73;0.30;;;;;;;27.90;39.00;100310.47;5009014;28;20026;-71
2022/06/20 02:31:15;;;;;;;1.25;0.40;;;;;;;27.89;38.91;100306.19;5008493;28;20092;-72
2022/06/20 02:33:41;;;;;;;0.95;0.40;;;;;;;27.89;39.21;100302.69;5008714;28;20030;-71
2022/06/20 02:36:07;;;;;;;1.08;0.60;;;;;;;27.90;38.79;100312.34;5008248;28;20026;-71
2022/06/20 02:38:34;;;;;;;0.93;0.50;;;;;;;27.87;39.07;100308.34;5008850;28;20044;-71
2022/06/20 02:41:00;;;;;;;0.85;0.50;;;;;;;27.85;38.42;100315.84;5007410;28;20038;-71
2022/06/20 02:43:49;;;;;;;1.25;0.40;;;;;;;27.82;38.84;100310.19;5008461;28;20088;-71
2022/06/20 02:46:19;;;;;;;0.88;0.40;;;;;;;27.85;38.92;100313.16;5007556;28;20033;-71
2022/06/20 02:48:49;;;;;;;1.05;0.40;;;;;;;27.85;38.70;100317.72;5008602;28;20049;-71
2022/06/20 02:51:20;;;;;;;0.80;0.70;;;;;;;27.87;38.96;100321.72;5008602;28;20026;-71
2022/06/20 02:53:55;;;;;;;0.75;0.38;;;;;;;27.87;38.70;100318.25;5008987;28;20045;-71
2022/06/20 02:56:22;;;;;;;0.80;0.40;;;;;;;27.86;38.79;100312.09;5008688;28;20044;-71
2022/06/20 02:58:58;;;;;;;1.02;0.40;;;;;;;27.86;38.63;100301.38;5006081;28;20026;-71
2022/06/20 03:01:49;;;;;;;1.77;0.45;;;;;;;27.86;38.97;100305.94;5007792;28;20444;-71
2022/06/20 03:04:16;;;;;;;1.27;0.32;;;;;;;27.85;38.51;100315.84;5008267;28;20046;-71
2022/06/20 03:06:49;;;;;;;0.63;0.30;;;;;;;27.86;38.28;100311.28;5008523;28;20156;-71
2022/06/20 03:11:43;;;;;;;0.60;0.40;;;;;;;27.85;38.33;100321.19;5280924;22;20244;-71
2022/06/20 03:14:16;;;;;;;0.93;0.40;;;;;;;27.85;38.70;100318.50;5008233;28;20194;-71
2022/06/20 03:16:41;;;;;;;1.02;0.40;;;;;;;27.84;38.59;100324.94;5008104;28;20112;-71
2022/06/20 03:19:14;;;;;;;0.55;0.30;;;;;;;27.83;38.18;100317.16;5007959;28;20109;-71
2022/06/20 03:21:42;;;;;;;0.88;0.47;;;;;;;27.82;38.30;100316.34;5008102;28;20036;-71
2022/06/20 03:24:14;;;;;;;1.08;0.40;;;;;;;27.83;38.50;100315.28;5008475;28;20515;-71
2022/06/20 03:26:40;;;;;;;1.45;0.40;;;;;;;27.82;38.24;100321.72;5008200;28;20026;-71
2022/06/20 03:29:09;;;;;;;1.42;0.40;;;;;;;27.81;38.15;100313.94;5007922;28;20440;-71
2022/06/20 03:31:35;;;;;;;1.10;0.50;;;;;;;27.82;38.32;100312.88;5007913;28;20033;-72
2022/06/20 03:34:00;;;;;;;0.80;0.40;;;;;;;27.79;38.09;100316.88;5007968;28;20026;-71
2022/06/20 03:36:28;;;;;;;1.27;0.30;;;;;;;27.78;37.65;100325.97;5007857;28;20495;-70
2022/06/20 03:38:55;;;;;;;1.08;0.40;;;;;;;27.76;37.53;100333.47;5008145;28;20040;-71
2022/06/20 03:41:24;;;;;;;1.80;0.55;;;;;;;27.75;37.96;100332.66;5008040;28;20022;-71
2022/06/20 03:44:00;;;;;;;0.90;0.50;;;;;;;27.73;37.44;100333.97;5007891;28;20493;-71
2022/06/20 03:46:29;;;;;;;1.05;0.50;;;;;;;27.72;37.78;100322.47;5007655;28;20481;-71
2022/06/20 03:49:16;;;;;;;0.95;0.40;;;;;;;27.71;37.75;100326.22;5010988;28;20033;-70
2022/06/20 03:51:46;;;;;;;1.52;0.50;;;;;;;27.72;37.83;100329.69;5011907;28;20034;-70
2022/06/20 03:54:30;;;;;;;1.00;0.40;;;;;;;27.72;37.78;100335.03;5011905;28;20105;-70
2022/06/20 03:57:12;;;;;;;1.23;0.35;;;;;;;27.71;37.97;100341.47;5011546;28;20557;-69
2022/06/20 03:59:45;;;;;;;1.70;0.50;;;;;;;27.71;37.81;100331.56;5011807;28;20034;-69
2022/06/20 04:02:29;;;;;;;0.68;0.30;;;;;;;27.72;37.79;100333.19;5011492;28;20161;-70
2022/06/20 04:05:05;;;;;;;0.88;0.40;;;;;;;27.71;37.74;100336.09;5011508;28;20040;-70
2022/06/20 04:07:40;;;;;;;1.13;0.50;;;;;;;27.72;37.53;100333.19;5011826;28;20026;-70
2022/06/20 04:13:22;;;;;;;0.52;0.40;;;;;;;27.73;37.30;100323.28;5011570;28;20468;-70
2022/06/20 04:15:50;;;;;;;0.55;0.30;;;;;;;27.74;37.59;100319.53;5011541;28;20026;-69
2022/06/20 04:18:38;;;;;;;3.60;0.52;;;;;;;27.73;37.65;100323.28;5011852;28;20480;-70
2022/06/20 04:21:16;;;;;;;1.88;0.40;;;;;;;27.70;37.35;100318.44;5011477;28;20164;-70
2022/06/20 04:23:56;;;;;;;2.20;0.52;;;;;;;27.57;36.79;100318.88;5011240;28;20037;-70
2022/06/20 04:26:31;;;;;;;1.73;0.65;;;;;;;27.47;36.88;100318.81;5011380;28;20034;-70
2022/06/20 04:29:25;;;;;;;1.77;0.40;;;;;;;27.29;36.93;100320.88;5011444;28;20044;-70
2022/06/20 04:32:01;;;;;;;4.35;0.70;;;;;;;27.24;37.99;100310.13;4997668;28;20037;-70
2022/06/20 04:34:43;;;;;;;29.70;5.68;;;;;;;27.40;38.25;100311.03;5011083;28;20073;-69
2022/06/20 04:37:30;;;;;;;9.80;2.00;;;;;;;27.48;38.21;100315.06;5011275;28;20053;-70
2022/06/20 04:39:58;;;;;;;4.28;0.88;;;;;;;27.51;38.33;100314.56;5010918;28;20034;-71
2022/06/20 04:42:33;;;;;;;1.50;0.70;;;;;;;27.52;38.74;100318.84;5011352;28;20653;-71
2022/06/20 04:45:25;;;;;;;7.95;0.73;;;;;;;27.49;38.46;100316.69;5011181;28;20033;-70
2022/06/20 04:48:23;;;;;;;6.20;1.13;;;;;;;27.51;38.81;100315.38;5010922;28;20030;-71
2022/06/20 04:50:52;;;;;;;2.42;0.60;;;;;;;27.41;38.35;100310.75;4997690;28;20084;-70
2022/06/20 04:53:30;;;;;;;1.52;0.60;;;;;;;27.34;37.55;100304.84;5010732;28;20038;-71
2022/06/20 04:55:58;;;;;;;3.50;0.77;;;;;;;27.32;37.78;100301.63;5010707;28;20072;-70
2022/06/20 04:58:41;;;;;;;2.45;0.90;;;;;;;27.25;37.50;100306.41;5008246;28;20037;-71
2022/06/20 05:01:08;;;;;;;5.35;1.05;;;;;;;27.22;37.75;100301.56;5024573;28;20437;-70
2022/06/20 05:03:39;;;;;;;1.55;0.85;;;;;;;27.21;37.60;100307.19;5010450;28;20079;-70
2022/06/20 05:06:09;;;;;;;3.35;1.42;;;;;;;27.21;37.71;100307.97;5009237;28;20523;-70
2022/06/20 05:08:40;;;;;;;3.33;1.25;;;;;;;27.17;37.81;100309.56;5001163;28;20038;-71
2022/06/20 05:11:22;;;;;;;3.75;1.13;;;;;;;27.16;37.37;100305.28;5008492;28;20108;-70
2022/06/20 05:14:13;;;;;;;2.05;0.95;;;;;;;27.09;37.29;100307.34;5009959;28;20038;-71
2022/06/20 05:16:45;;;;;;;3.70;0.50;;;;;;;27.01;37.42;100302.50;5008264;28;20053;-71
2022/06/20 05:19:40;;;;;;;2.88;0.80;;;;;;;26.93;37.62;100309.09;5009740;28;20049;-70
2022/06/20 05:22:22;;;;;;;3.50;0.50;;;;;;;26.87;37.83;100306.66;5009546;28;20042;-70
2022/06/20 05:24:51;;;;;;;3.90;0.52;;;;;;;26.90;37.84;100312.28;5010180;28;20033;-70
2022/06/20 05:27:16;;;;;;;3.53;0.70;;;;;;;26.90;37.72;100306.94;5009913;28;20444;-71
2022/06/20 05:29:43;;;;;;;2.88;0.90;;;;;;;26.84;37.87;100304.47;5010154;28;20026;-70
2022/06/20 05:32:17;;;;;;;3.58;0.93;;;;;;;26.85;37.81;100306.91;5010075;28;20038;-70
2022/06/20 05:34:44;;;;;;;2.00;0.77;;;;;;;26.79;37.83;100305.25;5010347;28;20033;-71
2022/06/20 05:37:28;;;;;;;2.70;0.55;;;;;;;26.76;37.92;100319.13;5010026;28;20536;-70
2022/06/20 05:40:08;;;;;;;2.58;0.90;;;;;;;26.72;38.32;100318.00;5009734;28;20112;-71
2022/06/20 05:42:34;;;;;;;3.33;0.82;;;;;;;26.75;38.08;100317.50;5009344;28;20033;-71
2022/06/20 05:45:00;;;;;;;3.75;0.93;;;;;;;26.73;38.13;100316.94;5009559;28;20147;-71
2022/06/20 05:47:35;;;;;;;4.68;0.50;;;;;;;26.68;38.14;100319.56;5010061;28;20046;-70
2022/06/20 05:50:26;;;;;;;2.25;0.80;;;;;;;26.65;38.28;100320.88;5007869;28;20030;-70
2022/06/20 05:52:53;;;;;;;3.80;0.80;;;;;;;26.68;38.39;100311.56;5010166;28;20068;-70
2022/06/20 05:55:26;;;;;;;2.70;0.77;;;;;;;26.66;38.42;100308.34;5009595;28;20042;-70
2022/06/20 05:57:53;;;;;;;10.10;0.80;;;;;;;26.65;38.07;100307.53;5008998;28;20056;-70
2022/06/20 06:00:22;;;;;;;1.67;0.60;;;;;;;26.64;38.24;100313.94;5010005;28;20030;-70
2022/06/20 06:02:55;;;;;;;1.55;0.63;;;;;;;26.63;38.19;100320.34;5009617;28;20076;-71
2022/06/20 06:05:23;;;;;;;3.05;0.60;;;;;;;26.57;38.46;100320.53;5009227;28;20040;-70
2022/06/20 06:07:58;;;;;;;4.60;0.73;;;;;;;26.62;38.83;100324.06;5008191;28;20065;-70
2022/06/20 06:10:26;;;;;;;5.05;0.60;;;;;;;26.74;38.71;100332.72;5008272;28;20512;-70
2022/06/20 06:13:09;;;;;;;2.55;0.52;;;;;;;26.84;38.98;100320.53;5008807;28;20108;-71
2022/06/20 06:16:46;;;;;;;9.05;0.50;;;;;;;26.87;38.36;100328.84;5008158;28;20121;-70
2022/06/20 06:18:36;;;;;;;5.82;0.80;;;;;;;26.78;38.62;100327.69;5009011;28;20049;-70
2022/06/20 06:21:02;;;;;;;4.20;0.50;;;;;;;26.77;38.56;100321.53;5009131;28;20028;-70
2022/06/20 06:23:28;;;;;;;2.15;0.50;;;;;;;26.81;38.55;100329.03;5009110;28;20036;-70
2022/06/20 06:25:54;;;;;;;2.42;0.68;;;;;;;26.87;38.57;100325.34;5008565;28;20026;-70
2022/06/20 06:28:23;;;;;;;3.03;0.50;;;;;;;26.90;38.43;100330.19;5008621;28;20041;-70
2022/06/20 06:31:16;;;;;;;4.32;0.90;;;;;;;26.88;38.66;100321.63;5009124;28;20022;-71
2022/06/20 06:33:49;;;;;;;8.63;0.85;;;;;;;26.90;38.68;100325.66;5009108;28;20030;-70
2022/06/20 06:36:30;;;;;;;6.18;0.75;;;;;;;26.89;38.38;100323.25;5006128;28;20041;-70
2022/06/20 06:39:06;;;;;;;3.90;0.70;;;;;;;26.90;38.88;100316.84;5008843;28;20060;-70
2022/06/20 06:41:39;;;;;;;5.28;0.63;;;;;;;26.92;38.81;100317.38;5009016;28;20022;-71
2022/06/20 06:44:19;;;;;;;4.03;0.77;;;;;;;26.94;38.82;100323.28;5008485;28;20096;-69
2022/06/20 06:46:52;;;;;;;6.40;1.05;;;;;;;26.94;38.93;100332.06;5009283;28;20113;-70
2022/06/20 06:49:24;;;;;;;2.75;0.60;;;;;;;26.96;38.73;100321.16;5009107;28;20038;-71
2022/06/20 06:51:57;;;;;;;6.07;0.57;;;;;;;26.98;38.82;100319.03;5008740;28;20048;-70
2022/06/20 06:54:42;;;;;;;2.10;0.80;;;;;;;26.93;39.02;100325.16;5005060;28;20040;-71
2022/06/20 06:57:19;;;;;;;2.17;0.52;;;;;;;26.92;38.82;100325.41;5001165;28;20048;-70
2022/06/20 07:00:15;;;;;;;2.92;0.65;;;;;;;26.93;38.81;100324.34;5008247;28;20040;-70
2022/06/20 07:02:51;;;;;;;1.25;0.50;;;;;;;26.94;38.98;100325.94;5009083;28;20033;-70
2022/06/20 07:05:26;;;;;;;1.00;0.60;;;;;;;26.93;39.07;100325.16;5006928;28;20041;-71
2022/06/20 07:08:11;;;;;;;5.28;0.77;;;;;;;26.96;38.95;100321.16;5007869;28;20040;-69
2022/06/20 07:10:48;;;;;;;2.42;0.60;;;;;;;26.95;38.85;100322.19;4988506;28;20046;-71
2022/06/20 07:13:20;;;;;;;1.60;0.60;;;;;;;26.95;38.75;100314.16;4996681;28;20026;-71
2022/06/20 07:15:48;;;;;;;0.75;0.47;;;;;;;26.99;38.59;100315.31;5006496;28;20448;-71
2022/06/20 07:18:39;;;;;;;4.03;0.90;;;;;;;27.00;38.35;100308.91;5008306;28;20378;-70
2022/06/20 07:21:04;;;;;;;2.45;0.63;;;;;;;27.02;38.24;100307.56;5008206;28;20080;-69
2022/06/20 07:23:30;;;;;;;2.65;0.90;;;;;;;27.02;38.17;100304.09;5008140;28;20417;-70
2022/06/20 07:25:57;;;;;;;3.47;0.63;;;;;;;27.02;38.15;100306.78;5000958;28;20042;-70
2022/06/20 07:28:39;;;;;;;3.53;0.88;;;;;;;27.02;38.33;100309.44;5008272;28;20452;-70
2022/06/20 07:31:35;;;;;;;0.95;0.75;;;;;;;26.99;38.28;100304.59;5007628;28;20548;-71
2022/06/20 07:34:08;;;;;;;2.53;1.00;;;;;;;26.99;38.05;100302.75;5004621;28;20050;-70
2022/06/20 07:36:40;;;;;;;2.35;0.73;;;;;;;27.04;37.98;100304.66;5006682;28;20037;-71
2022/06/20 07:39:22;;;;;;;0.98;0.73;;;;;;;27.03;37.73;100303.03;5008073;28;20061;-69
2022/06/20 07:41:54;;;;;;;1.58;0.70;;;;;;;27.03;37.98;100301.16;5007876;28;20394;-70
2022/06/20 07:44:31;;;;;;;2.20;1.05;;;;;;;27.04;37.78;100294.75;5007262;28;20487;-69
2022/06/20 07:47:02;;;;;;;1.67;0.98;;;;;;;27.06;37.81;100300.66;5008365;28;20065;-69
2022/06/20 07:49:41;;;;;;;3.20;0.88;;;;;;;27.04;37.60;100289.41;5008102;28;20044;-71
2022/06/20 07:52:48;;;;;;;2.72;0.70;;;;;;;26.99;36.90;100289.38;5007884;28;20049;-70
2022/06/20 07:55:22;;;;;;;1.73;0.80;;;;;;;27.00;37.04;100292.84;5000763;28;20461;-70
2022/06/20 07:58:12;;;;;;;1.85;1.13;;;;;;;27.01;36.97;100283.78;5007902;28;20033;-70
2022/06/20 08:00:46;;;;;;;0.93;0.80;;;;;;;27.03;37.33;100287.00;5007432;28;20034;-69
2022/06/20 08:03:22;;;;;;;1.43;0.60;;;;;;;27.04;37.24;100292.09;5008179;28;20049;-71
2022/06/20 08:06:12;;;;;;;4.63;0.73;;;;;;;27.04;37.10;100283.25;5005998;28;20033;-69
2022/06/20 08:08:43;;;;;;;1.80;1.10;;;;;;;27.06;36.97;100281.13;4956756;28;20058;-69
2022/06/20 08:11:40;;;;;;;2.65;0.82;;;;;;;27.08;37.04;100281.69;5001399;28;20050;-70
2022/06/20 08:14:07;;;;;;;1.23;0.63;;;;;;;27.09;37.14;100283.28;5007597;28;20493;-70
2022/06/20 08:16:35;;;;;;;2.35;0.98;;;;;;;27.11;36.87;100283.84;5006945;28;20034;-70
2022/06/20 08:19:00;;;;;;;1.40;0.65;;;;;;;27.12;36.76;100285.47;5007836;28;20025;-71
2022/06/20 08:21:32;;;;;;;2.58;1.00;;;;;;;27.14;36.56;100294.03;5007548;28;20482;-70
2022/06/20 08:24:03;;;;;;;1.25;0.60;;;;;;;27.13;36.46;100287.06;5007488;28;20080;-69
2022/06/20 08:26:34;;;;;;;4.00;1.00;;;;;;;27.15;36.58;100287.63;5006768;28;20037;-71
2022/06/20 08:29:05;;;;;;;1.20;0.70;;;;;;;27.16;36.41;100289.22;5007697;28;20033;-69
2022/06/20 08:31:35;;;;;;;1.73;0.60;;;;;;;27.18;36.34;100286.28;5006451;28;20436;-69
2022/06/20 08:34:12;;;;;;;1.92;0.80;;;;;;;27.18;36.16;100295.13;5009402;28;20034;-70
2022/06/20 08:36:51;;;;;;;1.42;0.98;;;;;;;27.17;36.10;100276.66;5009056;28;20034;-69
2022/06/20 08:39:33;;;;;;;4.40;0.73;;;;;;;27.15;35.76;100282.28;5011073;28;20517;-69
2022/06/20 08:42:18;;;;;;;2.00;0.50;;;;;;;27.14;35.47;100286.00;5011321;28;20568;-69
2022/06/20 08:45:02;;;;;;;1.58;0.82;;;;;;;27.12;35.23;100281.97;5010938;28;20045;-69
2022/06/20 08:47:50;;;;;;;1.10;0.82;;;;;;;27.13;35.46;100286.25;5008905;28;20459;-71
2022/06/20 08:50:25;;;;;;;1.42;0.50;;;;;;;27.13;35.48;100276.38;4991246;28;20038;-69
2022/06/20 08:52:56;;;;;;;;;;;;;;;27.06;35.94;100284.63;4991906;28;20034;-70
2022/06/20 08:55:58;;;;;;;1.42;0.60;;;;;;;27.10;35.84;100288.38;4991414;28;19917;-71
2022/06/20 08:58:32;;;;;;;2.58;0.70;;;;;;;27.14;35.61;100277.19;4910063;29;20530;-71
2022/06/20 09:01:11;;;;;;;1.80;0.80;;;;;;;27.16;35.97;100280.41;4905952;29;20043;-71
2022/06/20 09:03:58;;;;;;;1.73;0.70;;;;;;;27.17;36.09;100282.81;4911596;29;20040;-71
2022/06/20 09:06:44;;;;;;;2.80;0.98;;;;;;;27.17;36.36;100288.16;4910396;29;20071;-71
2022/06/20 09:09:21;;;;;;;2.30;1.00;;;;;;;27.20;36.46;100287.66;4963755;22;20137;-70
2022/06/20 09:11:55;;;;;;;1.50;1.00;;;;;;;27.22;36.85;100285.53;4986029;28;20041;-71
2022/06/20 09:14:21;;;;;;;1.17;0.60;;;;;;;27.22;36.83;100282.84;4991051;28;20060;-70
2022/06/20 09:16:46;;;;;;;1.33;1.23;;;;;;;27.23;36.95;100287.13;4990495;28;20458;-70
2022/06/20 09:19:52;;;;;;;2.78;1.25;;;;;;;27.24;36.95;100279.91;4989892;28;20084;-71
2022/06/20 09:22:39;;;;;;;0.85;0.70;;;;;;;27.23;36.72;100276.44;4960751;28;20051;-71
2022/06/20 09:25:25;;;;;;;1.52;0.80;;;;;;;27.24;36.72;100275.38;4971326;28;20031;-71
2022/06/20 09:28:22;;;;;;;3.38;1.15;;;;;;;27.24;36.75;100272.69;4971136;28;20031;-70
2022/06/20 09:30:56;;;;;;;1.40;0.70;;;;;;;27.26;37.27;100267.91;4977278;28;20038;-70
2022/06/20 09:33:40;;;;;;;1.10;0.80;;;;;;;27.28;37.32;100267.63;4992255;28;20038;-70
2022/06/20 09:36:20;;;;;;;2.08;1.00;;;;;;;27.28;37.21;100265.78;4993897;28;20386;-70
2022/06/20 09:39:13;;;;;;;1.13;0.85;;;;;;;27.27;37.53;100264.16;4990033;28;20042;-69
2022/06/20 09:42:00;;;;;;;4.20;0.90;;;;;;;27.26;37.56;100267.09;4989488;28;20054;-70
2022/06/20 09:44:25;;;;;;;1.55;0.80;;;;;;;27.27;37.66;100261.47;4985509;28;20121;-70
2022/06/20 09:47:09;;;;;;;1.80;0.75;;;;;;;27.26;37.74;100259.88;4988263;28;20152;-72
2022/06/20 09:50:12;;;;;;;2.40;1.08;;;;;;;27.28;37.87;100265.78;4990876;28;20034;-72
2022/06/20 09:53:08;;;;;;;1.98;0.65;;;;;;;27.28;38.20;100254.28;4987186;28;20040;-71
2022/06/20 09:55:53;;;;;;;1.33;1.00;;;;;;;27.28;38.27;100263.09;4987067;28;20134;-70
2022/06/20 09:58:24;;;;;;;2.53;0.85;;;;;;;27.28;38.09;100260.41;4992045;28;20117;-70
2022/06/20 10:01:34;;;;;;;2.55;0.57;;;;;;;27.28;38.13;100263.09;4989521;28;20046;-71
2022/06/20 10:04:17;;;;;;;5.85;1.13;;;;;;;27.26;38.25;100254.53;4941924;28;20038;-72
2022/06/20 10:07:21;;;;;;;1.20;0.77;;;;;;;27.27;38.01;100253.47;4955644;28;20039;-70
2022/06/20 10:10:23;;;;;;;1.02;0.68;;;;;;;27.27;37.76;100250.78;4937809;28;20145;-72
2022/06/20 10:12:57;;;;;;;1.00;0.60;;;;;;;27.29;37.92;100242.50;4950941;28;20057;-71
2022/06/20 10:15:31;;;;;;;2.03;0.75;;;;;;;27.33;37.40;100247.06;4965397;28;20053;-70
2022/06/20 10:18:03;;;;;;;4.43;0.50;;;;;;;27.34;37.22;100248.69;4946490;28;20491;-73
2022/06/20 10:20:46;;;;;;;2.53;0.47;;;;;;;27.35;36.65;100241.47;4945179;28;20035;-72
2022/06/20 10:23:29;;;;;;;3.45;0.50;;;;;;;27.34;36.43;100250.56;4947395;28;20098;-72
2022/06/20 10:26:29;;;;;;;1.05;0.47;;;;;;;27.35;36.11;100241.47;4948777;28;20039;-72
2022/06/20 10:29:00;;;;;;;2.22;0.38;;;;;;;27.36;36.26;100235.06;4947910;28;20055;-71
2022/06/20 10:31:40;;;;;;;3.10;0.73;;;;;;;27.35;35.75;100241.47;4954568;28;20027;-72
2022/06/20 10:34:43;;;;;;;1.77;0.40;;;;;;;27.34;35.58;100239.84;4955562;28;20141;-70
2022/06/20 10:37:18;;;;;;;0.40;0.30;;;;;;;27.34;35.20;100250.56;4988464;28;20394;-70
2022/06/20 10:40:14;;;;;;;1.50;0.30;;;;;;;27.32;34.46;100240.13;4986831;28;20413;-72
2022/06/20 10:43:16;;;;;;;1.42;0.30;;;;;;;27.34;34.34;100235.31;4987713;28;20052;-72
2022/06/20 10:45:46;;;;;;;1.85;0.30;;;;;;;27.37;34.47;100231.31;4992807;28;20505;-71
2022/06/20 10:48:39;;;;;;;1.15;0.43;;;;;;;27.37;34.16;100228.63;4989291;28;20066;-72
2022/06/20 10:51:51;;;;;;;1.20;0.30;;;;;;;27.38;34.63;100230.25;4988149;28;20034;-72
2022/06/20 10:54:34;;;;;;;2.95;0.70;;;;;;;27.37;35.28;100234.78;4969643;28;20461;-71
2022/06/20 10:57:03;;;;;;;1.02;0.50;;;;;;;27.41;35.53;100230.50;4969335;28;20049;-71
2022/06/20 11:00:06;;;;;;;1.70;0.40;;;;;;;27.42;35.73;100226.75;4969507;28;20241;-73
2022/06/20 11:02:45;;;;;;;1.67;0.52;;;;;;;27.41;36.18;100224.38;4981735;28;20042;-72
2022/06/20 11:05:28;;;;;;;1.55;0.45;;;;;;;27.41;36.13;100227.81;4989043;28;20486;-71
2022/06/20 11:07:57;;;;;;;2.25;0.52;;;;;;;27.42;36.57;100210.72;4988964;28;20050;-73
2022/06/20 11:10:42;;;;;;;2.72;0.50;;;;;;;27.43;36.92;100196.28;4988829;28;20486;-72
2022/06/20 11:13:24;;;;;;;1.52;0.38;;;;;;;27.48;37.21;100206.19;4985666;28;20039;-73
2022/06/20 11:16:00;;;;;;;1.50;0.47;;;;;;;27.51;37.23;100212.88;4987963;28;20058;-72
2022/06/20 11:18:47;;;;;;;0.70;0.47;;;;;;;27.49;37.52;100207.00;4987928;28;20564;-71
2022/06/20 11:21:15;;;;;;;2.15;0.52;;;;;;;27.49;38.05;100199.78;4988792;28;20041;-73
2022/06/20 11:24:21;;;;;;;0.85;0.40;;;;;;;27.51;38.57;100200.31;4988575;28;20030;-73
2022/06/20 11:27:00;;;;;;;0.90;0.32;;;;;;;27.53;38.60;100198.19;4988389;28;20045;-72
2022/06/20 11:29:38;;;;;;;0.68;0.30;;;;;;;27.53;38.32;100186.69;4987712;28;20034;-71
2022/06/20 11:32:10;;;;;;;1.15;0.38;;;;;;;27.54;38.22;100175.72;4973862;28;20072;-72
2022/06/20 11:35:11;;;;;;;1.92;0.40;;;;;;;27.55;38.41;100181.88;4988559;28;20100;-70
2022/06/20 11:38:18;;;;;;;3.20;0.40;;;;;;;27.56;38.94;100178.13;4974928;28;20047;-71
2022/06/20 11:40:58;;;;;;;0.90;0.40;;;;;;;27.60;38.96;100181.91;4946987;29;20035;-72
2022/06/20 11:43:29;;;;;;;1.08;0.50;;;;;;;27.60;39.17;100168.53;4946001;28;20126;-70
2022/06/20 11:45:57;;;;;;;1.30;0.40;;;;;;;27.62;39.25;100171.75;4946974;29;20039;-71
2022/06/20 11:48:52;;;;;;;2.00;0.40;;;;;;;27.62;39.92;100171.75;4946324;28;20409;-70
2022/06/20 11:51:38;;;;;;;3.00;0.57;;;;;;;27.62;39.92;100171.75;4946998;29;20360;-71
2022/06/20 11:54:31;;;;;;;4.40;0.80;;;;;;;27.61;40.10;100172.81;4945911;28;20039;-71
2022/06/20 11:57:09;;;;;;;1.30;0.32;;;;;;;27.63;39.88;100168.00;4945463;28;20058;-70
2022/06/20 11:59:56;;;;;;;5.05;0.63;;;;;;;27.61;40.32;100168.28;4945564;28;20199;-70
2022/06/20 12:02:31;;;;;;;3.35;0.70;;;;;;;27.63;40.52;100168.81;4941932;28;20143;-72
2022/06/20 12:05:18;;;;;;;2.33;0.50;;;;;;;27.66;40.76;100164.81;4927858;29;20046;-73
2022/06/20 12:07:49;;;;;;;1.02;0.50;;;;;;;27.68;41.12;100168.03;4927601;29;20555;-72
2022/06/20 12:10:21;;;;;;;2.72;0.63;;;;;;;27.70;41.10;100165.88;4931061;29;20427;-71
2022/06/20 12:12:56;;;;;;;2.72;0.60;;;;;;;27.70;41.50;100152.50;4939381;28;20035;-73
2022/06/20 12:15:28;;;;;;;;;;;;;;;27.64;41.77;100164.25;4981310;28;20054;-72
2022/06/20 12:18:27;;;;;;;2.08;0.40;;;;;;;27.65;41.61;100160.53;4980523;28;19922;-72
2022/06/20 12:23:45;;;;;;;7.05;0.75;;;;;;;27.70;41.79;100155.19;4982651;28;20113;-73